Time;durP1;ratioP1;P1;durP2;ratioP2;P2;SDS_P1;SDS_P2;PMS_P1;PMS_P2;Temp;Humidity;BMP_temperature;BMP_pressure;BME280_temperature;BME280_humidity;BME280_pressure;Samples;Min_cycle;Max_cycle;Signal;HPM_P1;HPM_P2
2022/01/12 00:00:26;;;;;;;4.28;3.70;;;18.20;32.40;;;;;;5150236;27;48210;-15
2022/01/12 00:02:52;;;;;;;4.80;3.95;;;18.30;32.40;;;;;;5150725;27;47598;-15
2022/01/12 00:05:20;;;;;;;3.83;3.50;;;18.30;32.40;;;;;;5150610;27;46967;-14
2022/01/12 00:07:49;;;;;;;4.68;3.53;;;18.20;32.30;;;;;;5150996;27;47179;-14
2022/01/12 00:10:16;;;;;;;4.63;3.90;;;18.20;32.30;;;;;;5150470;27;48750;-14
2022/01/12 00:12:43;;;;;;;4.30;3.90;;;18.20;32.30;;;;;;5150355;27;47590;-15
2022/01/12 00:15:11;;;;;;;4.13;3.72;;;18.20;32.30;;;;;;5150625;27;47008;-15
2022/01/12 00:17:38;;;;;;;4.03;3.50;;;18.30;32.40;;;;;;5150530;27;47089;-15
2022/01/12 00:20:05;;;;;;;4.28;3.53;;;18.30;32.30;;;;;;5150172;27;46964;-15
2022/01/12 00:22:34;;;;;;;3.45;3.15;;;18.30;32.20;;;;;;5150500;27;46810;-15
2022/01/12 00:25:22;;;;;;;4.57;3.80;;;18.30;32.20;;;;;;5150166;27;46930;-15
2022/01/12 00:33:17;;;;;;;3.88;3.40;;;18.30;32.10;;;;;;5147445;27;46849;-15
2022/01/12 00:35:45;;;;;;;3.42;3.20;;;18.30;32.10;;;;;;5150356;27;46895;-15
2022/01/12 00:38:13;;;;;;;4.05;3.67;;;18.30;32.00;;;;;;5150511;27;46874;-15
2022/01/12 00:40:41;;;;;;;4.03;3.60;;;18.30;32.00;;;;;;5149986;27;49038;-14
2022/01/12 00:43:08;;;;;;;4.75;3.80;;;18.30;32.10;;;;;;5150322;27;46882;-14
2022/01/12 00:45:37;;;;;;;4.50;4.10;;;18.30;32.00;;;;;;5150094;27;46741;-15
2022/01/12 00:48:04;;;;;;;3.70;3.30;;;18.30;32.00;;;;;;5150411;27;46970;-15
2022/01/12 00:50:31;;;;;;;3.75;3.45;;;18.20;32.50;;;;;;5149726;27;47876;-14
2022/01/12 00:52:58;;;;;;;4.22;3.83;;;18.30;32.00;;;;;;5150002;27;47249;-14
2022/01/12 00:55:26;;;;;;;4.05;3.60;;;18.20;31.90;;;;;;5149795;27;46917;-14
2022/01/12 00:57:55;;;;;;;4.00;3.60;;;18.20;31.90;;;;;;5150196;27;46823;-15
2022/01/12 01:00:23;;;;;;;3.88;3.58;;;18.20;31.90;;;;;;5149389;27;46863;-14
2022/01/12 01:02:49;;;;;;;4.00;3.58;;;18.20;31.80;;;;;;5149547;27;47137;-15
2022/01/12 01:05:19;;;;;;;3.92;3.53;;;18.20;31.90;;;;;;5149737;27;46989;-15
2022/01/12 01:07:46;;;;;;;4.38;3.53;;;18.20;31.80;;;;;;5149277;27;47185;-15
2022/01/12 01:10:18;;;;;;;4.43;3.72;;;18.20;31.80;;;;;;5149620;27;47828;-15
2022/01/12 01:12:46;;;;;;;3.78;3.33;;;18.20;31.80;;;;;;5149888;27;47120;-15
2022/01/12 01:15:17;;;;;;;3.53;3.28;;;18.10;31.80;;;;;;5149683;27;46914;-15
2022/01/12 01:26:11;;;;;;;3.88;3.35;;;18.10;31.80;;;;;;5120268;27;47233;-14
2022/01/12 01:28:39;;;;;;;4.00;3.60;;;18.10;31.80;;;;;;5149507;27;46859;-13
2022/01/12 01:31:06;;;;;;;3.53;3.22;;;18.10;31.80;;;;;;5149154;27;47882;-14
2022/01/12 01:33:33;;;;;;;3.90;3.50;;;18.20;31.80;;;;;;5149313;27;46980;-15
2022/01/12 01:35:59;;;;;;;3.85;3.55;;;18.20;31.70;;;;;;5149018;27;46931;-14
2022/01/12 01:38:26;;;;;;;4.35;3.47;;;18.20;31.60;;;;;;5149332;27;47293;-15
2022/01/12 01:40:53;;;;;;;4.07;3.38;;;18.20;31.70;;;;;;5148788;27;47851;-14
2022/01/12 01:43:26;;;;;;;3.35;3.05;;;18.20;31.70;;;;;;5149082;27;46750;-15
2022/01/12 01:54:07;;;;;;;4.10;3.40;;;18.20;31.50;;;;;;5146098;27;46808;-14
2022/01/12 01:56:34;;;;;;;3.78;3.47;;;18.20;31.50;;;;;;5148727;27;46851;-17
2022/01/12 01:59:01;;;;;;;3.42;3.13;;;18.20;31.50;;;;;;5149336;27;46857;-14
2022/01/12 02:01:29;;;;;;;3.47;3.17;;;18.20;31.40;;;;;;5148510;27;47832;-15
2022/01/12 02:03:59;;;;;;;3.20;2.90;;;18.20;31.40;;;;;;5148884;27;47233;-14
2022/01/12 02:06:26;;;;;;;3.45;3.15;;;18.20;31.40;;;;;;5148746;27;46785;-15
2022/01/12 02:08:52;;;;;;;3.20;2.90;;;18.20;31.40;;;;;;5148972;27;46925;-15
2022/01/12 02:11:25;;;;;;;3.58;3.28;;;18.10;31.30;;;;;;5148710;27;49073;-15
2022/01/12 02:13:52;;;;;;;3.33;3.00;;;18.10;31.30;;;;;;5148737;27;46904;-15
2022/01/12 02:16:23;;;;;;;3.53;3.08;;;18.10;31.20;;;;;;5148470;27;46867;-15
2022/01/12 02:19:09;;;;;;;3.40;3.10;;;18.10;31.20;;;;;;5147452;27;46927;-15
2022/01/12 02:40:47;;;;;;;3.17;2.88;;;18.10;31.10;;;;;;5148202;27;47170;-14
2022/01/12 02:43:17;;;;;;;3.15;2.80;;;18.10;31.20;;;;;;5148650;27;47029;-15
2022/01/12 02:51:31;;;;;;;3.60;3.30;;;18.10;31.10;;;;;;5147824;27;46912;-15
2022/01/12 02:53:57;;;;;;;3.60;3.30;;;18.10;31.10;;;;;;5148166;27;47085;-15
2022/01/12 02:56:27;;;;;;;2.85;2.65;;;18.10;31.10;;;;;;5147664;27;48070;-15
2022/01/12 02:58:56;;;;;;;3.25;2.95;;;18.10;31.10;;;;;;5148118;27;46906;-15
2022/01/12 03:01:54;;;;;;;3.38;3.08;;;18.10;31.00;;;;;;5147488;27;46904;-15
2022/01/12 03:04:21;;;;;;;3.20;2.90;;;18.10;31.00;;;;;;5148014;27;47012;-14
2022/01/12 03:06:50;;;;;;;3.10;2.85;;;18.10;30.90;;;;;;5147429;27;46896;-19
2022/01/12 03:09:17;;;;;;;3.10;2.80;;;18.10;31.00;;;;;;5147560;27;46833;-19
2022/01/12 03:11:45;;;;;;;2.85;2.65;;;18.10;31.00;;;;;;5147903;27;46922;-20
2022/01/12 03:14:11;;;;;;;3.03;2.72;;;18.10;30.90;;;;;;5147920;27;46848;-19
2022/01/12 03:16:38;;;;;;;2.97;2.78;;;18.10;30.90;;;;;;5147381;27;48858;-19
2022/01/12 03:19:05;;;;;;;3.17;2.97;;;18.10;30.90;;;;;;5147402;27;47424;-20
2022/01/12 03:21:33;;;;;;;3.10;2.88;;;18.10;30.80;;;;;;5147193;27;47053;-19
2022/01/12 03:24:00;;;;;;;2.90;2.70;;;18.10;30.90;;;;;;5147515;27;47192;-19
2022/01/12 03:26:28;;;;;;;2.65;2.45;;;18.10;30.90;;;;;;5147130;27;47849;-26
2022/01/12 03:28:57;;;;;;;3.28;3.00;;;18.10;30.80;;;;;;5147113;27;47037;-20
2022/01/12 03:31:24;;;;;;;2.95;2.65;;;18.10;30.80;;;;;;5147043;27;46903;-20
2022/01/12 03:33:58;;;;;;;3.17;2.88;;;18.10;30.80;;;;;;5147630;27;46825;-19
2022/01/12 03:36:28;;;;;;;2.92;2.72;;;18.10;30.80;;;;;;5147319;27;46736;-19
2022/01/12 03:38:56;;;;;;;2.88;2.67;;;18.00;31.40;;;;;;5147198;27;46980;-20
2022/01/12 03:41:23;;;;;;;2.55;2.35;;;18.00;30.80;;;;;;5146917;27;46907;-20
2022/01/12 03:43:50;;;;;;;3.38;3.08;;;18.10;30.80;;;;;;5147243;27;46830;-19
2022/01/12 03:46:19;;;;;;;3.15;2.85;;;18.10;30.80;;;;;;5147140;27;49019;-20
2022/01/12 03:48:46;;;;;;;2.97;2.72;;;18.00;30.70;;;;;;5147422;27;47478;-20
2022/01/12 03:51:13;;;;;;;2.55;2.35;;;18.00;30.70;;;;;;5146770;27;46960;-19
2022/01/12 03:53:39;;;;;;;3.20;2.90;;;18.00;30.70;;;;;;5147459;27;47126;-20
2022/01/12 03:56:06;;;;;;;2.75;2.55;;;18.10;30.80;;;;;;5146875;27;48381;-20
2022/01/12 03:58:33;;;;;;;2.65;2.45;;;18.00;30.60;;;;;;5147256;27;46950;-20
2022/01/12 04:00:59;;;;;;;3.10;2.80;;;18.10;30.70;;;;;;5146817;27;46908;-20
2022/01/12 04:03:29;;;;;;;2.95;2.75;;;18.10;30.60;;;;;;5147351;27;47254;-20
2022/01/12 04:08:40;;;;;;;3.00;2.70;;;18.10;30.60;;;;;;5144225;27;46800;-20
2022/01/12 04:11:07;;;;;;;2.65;2.45;;;18.10;30.70;;;;;;5146956;27;46806;-15
2022/01/12 04:13:33;;;;;;;2.90;2.70;;;18.10;30.50;;;;;;5146867;27;47158;-15
2022/01/12 04:16:01;;;;;;;2.67;2.47;;;18.10;30.50;;;;;;5146566;27;47850;-14
2022/01/12 04:18:29;;;;;;;2.72;2.53;;;18.10;30.50;;;;;;5146654;27;46829;-15
2022/01/12 04:20:57;;;;;;;3.03;2.83;;;18.10;30.50;;;;;;5146671;27;46775;-15
2022/01/12 04:23:24;;;;;;;2.83;2.63;;;18.00;30.40;;;;;;5146727;27;47009;-15
2022/01/12 04:25:52;;;;;;;2.38;2.28;;;18.10;30.50;;;;;;5146180;27;48161;-15
2022/01/12 04:28:20;;;;;;;3.28;2.97;;;18.10;30.40;;;;;;5146548;27;46888;-15
2022/01/12 04:30:47;;;;;;;2.88;2.67;;;18.10;30.30;;;;;;5146564;27;46737;-15
2022/01/12 04:33:14;;;;;;;3.05;2.60;;;18.00;30.30;;;;;;5146842;27;47091;-15
2022/01/12 04:35:47;;;;;;;2.63;2.42;;;18.00;30.40;;;;;;5146458;27;48751;-14
2022/01/12 04:38:14;;;;;;;2.70;2.50;;;18.00;30.40;;;;;;5146467;27;47157;-15
2022/01/12 04:40:40;;;;;;;2.95;2.60;;;18.00;30.30;;;;;;5146492;27;46849;-15
2022/01/12 04:43:08;;;;;;;2.60;2.33;;;18.00;30.30;;;;;;5150151;27;47282;-15
2022/01/12 04:45:45;;;;;;;2.55;2.35;;;18.00;30.30;;;;;;5149757;27;48851;-15
2022/01/12 04:48:33;;;;;;;2.92;2.60;;;18.00;30.30;;;;;;5149855;27;47487;-15
2022/01/12 04:51:01;;;;;;;2.60;2.40;;;18.00;30.30;;;;;;5149827;27;46824;-15
2022/01/12 04:53:29;;;;;;;2.38;2.25;;;18.00;30.30;;;;;;5150149;27;46930;-15
2022/01/12 04:55:56;;;;;;;2.45;2.30;;;18.00;30.20;;;;;;5149938;27;46955;-15
2022/01/12 04:58:22;;;;;;;2.67;2.47;;;18.00;30.20;;;;;;5150014;27;47271;-15
2022/01/12 05:00:50;;;;;;;2.67;2.47;;;18.00;30.30;;;;;;5149909;27;47315;-15
2022/01/12 05:08:53;;;;;;;2.22;2.13;;;18.00;30.20;;;;;;5146926;27;46885;-14
2022/01/12 05:14:04;;;;;;;2.83;2.10;;;18.00;30.10;;;;;;5146906;27;46977;-15
2022/01/12 05:16:31;;;;;;;2.80;2.50;;;18.00;30.20;;;;;;5149371;27;48842;-14
2022/01/12 05:18:59;;;;;;;2.60;2.40;;;18.00;30.20;;;;;;5149266;27;46903;-14
2022/01/12 05:21:26;;;;;;;2.70;2.45;;;17.90;30.10;;;;;;5149328;27;46914;-15
2022/01/12 05:23:55;;;;;;;2.53;2.33;;;18.00;30.20;;;;;;5149974;27;46860;-15
2022/01/12 05:26:21;;;;;;;2.80;2.60;;;18.00;30.10;;;;;;5148920;27;49024;-19
2022/01/12 05:28:48;;;;;;;2.22;2.10;;;18.00;30.20;;;;;;5149615;27;47027;-20
2022/01/12 05:31:15;;;;;;;2.40;2.20;;;18.00;30.20;;;;;;5149132;27;47019;-19
2022/01/12 05:33:47;;;;;;;2.42;2.22;;;18.00;30.20;;;;;;5149343;27;46912;-20
2022/01/12 05:36:15;;;;;;;2.50;2.30;;;18.00;30.10;;;;;;5149063;27;46894;-20
2022/01/12 05:38:42;;;;;;;2.50;2.30;;;18.00;30.10;;;;;;5149004;27;47408;-20
2022/01/12 05:41:11;;;;;;;2.47;2.33;;;18.00;30.00;;;;;;5149104;27;47034;-20
2022/01/12 05:43:39;;;;;;;2.40;2.20;;;18.00;30.00;;;;;;5149027;27;46925;-20
2022/01/12 05:46:10;;;;;;;2.60;2.40;;;18.00;30.00;;;;;;5148732;27;48322;-19
2022/01/12 05:51:21;;;;;;;2.83;2.40;;;18.00;30.00;;;;;;5147842;27;46971;-14
2022/01/12 05:53:48;;;;;;;3.38;2.40;;;18.00;29.90;;;;;;5149083;27;46846;-15
2022/01/12 05:56:16;;;;;;;2.65;2.40;;;18.00;30.00;;;;;;5148849;27;47963;-15
2022/01/12 05:58:43;;;;;;;2.42;2.22;;;17.90;30.00;;;;;;5148969;27;47289;-15
2022/01/12 06:01:10;;;;;;;2.17;2.08;;;17.90;30.00;;;;;;5148480;27;47060;-15
2022/01/12 06:03:36;;;;;;;2.35;2.10;;;17.90;30.00;;;;;;5148997;27;47134;-15
2022/01/12 06:06:03;;;;;;;2.47;2.28;;;17.90;30.00;;;;;;5148537;27;47047;-14
2022/01/12 06:08:30;;;;;;;2.25;2.05;;;17.90;30.00;;;;;;5148606;27;47019;-15
2022/01/12 06:10:56;;;;;;;2.20;2.00;;;17.90;30.00;;;;;;5148564;27;46916;-15
2022/01/12 06:13:24;;;;;;;2.20;2.00;;;17.90;30.00;;;;;;5148899;27;46939;-15
2022/01/12 06:15:51;;;;;;;2.60;2.40;;;17.90;30.00;;;;;;5148334;27;49031;-15
2022/01/12 06:18:18;;;;;;;2.28;2.08;;;17.90;30.00;;;;;;5148478;27;46983;-15
2022/01/12 06:20:45;;;;;;;2.40;2.20;;;17.90;29.90;;;;;;5148320;27;46935;-15
2022/01/12 06:23:11;;;;;;;2.30;2.10;;;17.90;29.90;;;;;;5148671;27;47225;-16
2022/01/12 06:25:38;;;;;;;2.83;2.63;;;17.90;30.00;;;;;;5147672;27;47957;-15
2022/01/12 06:28:24;;;;;;;2.95;2.42;;;17.90;29.90;;;;;;5148281;27;46861;-15
2022/01/12 06:33:36;;;;;;;2.50;2.30;;;18.00;29.90;;;;;;5145822;27;47015;-15
2022/01/12 06:36:03;;;;;;;3.35;2.65;;;18.00;29.90;;;;;;5148179;27;47124;-15
2022/01/12 06:38:30;;;;;;;2.80;2.60;;;18.00;29.90;;;;;;5145938;27;47051;-15
2022/01/12 06:40:57;;;;;;;3.58;2.67;;;18.00;29.90;;;;;;5128136;27;47015;-20
2022/01/12 06:43:23;;;;;;;3.20;2.90;;;18.00;29.90;;;;;;5127327;27;46882;-20
2022/01/12 06:45:52;;;;;;;3.10;2.75;;;18.00;29.90;;;;;;5145041;27;47743;-20
2022/01/12 06:48:18;;;;;;;3.55;3.22;;;18.00;29.80;;;;;;5148486;27;46874;-20
2022/01/12 06:50:45;;;;;;;3.88;3.42;;;17.90;29.60;;;;;;5147182;27;46915;-21
2022/01/12 06:53:12;;;;;;;3.58;3.05;;;17.90;29.80;;;;;;5146705;27;46950;-20
2022/01/12 06:55:39;;;;;;;3.33;3.03;;;17.90;29.80;;;;;;5146719;27;47335;-21
2022/01/12 06:58:05;;;;;;;3.70;3.05;;;17.90;29.80;;;;;;5147284;27;47426;-21
2022/01/12 07:00:32;;;;;;;3.75;3.35;;;17.90;29.70;;;;;;5147469;27;47002;-21
2022/01/12 07:03:01;;;;;;;3.42;3.13;;;17.90;29.70;;;;;;5147878;27;47111;-20
2022/01/12 07:05:28;;;;;;;3.35;3.05;;;17.90;29.70;;;;;;5146610;27;48085;-20
2022/01/12 07:07:55;;;;;;;3.20;2.90;;;17.90;29.80;;;;;;5135286;27;46886;-20
2022/01/12 07:10:22;;;;;;;3.35;3.05;;;17.90;29.80;;;;;;5126960;27;47043;-20
2022/01/12 07:12:49;;;;;;;4.22;2.97;;;17.90;29.80;;;;;;5133254;27;47169;-20
2022/01/12 07:15:16;;;;;;;3.38;3.08;;;17.90;29.60;;;;;;5147203;27;49061;-20
2022/01/12 07:17:43;;;;;;;3.40;3.10;;;17.90;29.50;;;;;;5147331;27;46844;-20
2022/01/12 07:20:12;;;;;;;3.63;3.20;;;17.90;29.70;;;;;;5147910;27;47089;-20
2022/01/12 07:22:38;;;;;;;3.63;3.03;;;17.90;29.70;;;;;;5147410;27;46974;-20
2022/01/12 07:25:06;;;;;;;3.47;3.00;;;17.90;29.70;;;;;;5146464;27;47065;-20
2022/01/12 07:27:33;;;;;;;4.28;3.35;;;17.90;29.70;;;;;;5146700;27;46971;-20
2022/01/12 07:30:00;;;;;;;3.50;3.08;;;17.90;29.70;;;;;;5147320;27;46872;-20
2022/01/12 07:32:27;;;;;;;3.15;2.80;;;17.90;29.70;;;;;;5147264;27;47114;-19
2022/01/12 07:34:54;;;;;;;3.72;3.28;;;17.90;29.70;;;;;;5147385;27;48127;-15
2022/01/12 07:37:22;;;;;;;3.45;3.15;;;17.90;29.70;;;;;;5147506;27;46878;-15
2022/01/12 07:39:49;;;;;;;3.55;2.90;;;17.90;29.60;;;;;;5147643;27;46841;-15
2022/01/12 07:42:15;;;;;;;3.47;3.17;;;17.90;29.60;;;;;;5147501;27;46872;-16
2022/01/12 07:44:42;;;;;;;3.58;3.22;;;17.90;29.50;;;;;;5147388;27;47943;-15
2022/01/12 07:47:09;;;;;;;3.40;3.10;;;17.90;29.60;;;;;;5147456;27;47094;-15
2022/01/12 07:49:36;;;;;;;3.58;3.20;;;17.90;29.60;;;;;;5147312;27;46854;-15
2022/01/12 07:52:04;;;;;;;3.33;3.03;;;17.90;29.60;;;;;;5147058;27;46839;-16
2022/01/12 07:54:32;;;;;;;3.50;3.20;;;17.90;29.50;;;;;;5147013;27;48100;-15
2022/01/12 07:56:59;;;;;;;2.90;2.70;;;18.00;29.60;;;;;;5147148;27;46904;-16
2022/01/12 07:59:26;;;;;;;2.92;2.72;;;17.90;29.50;;;;;;5147232;27;46894;-15
2022/01/12 08:01:53;;;;;;;3.47;3.17;;;17.90;29.60;;;;;;5146882;27;47278;-15
2022/01/12 08:04:19;;;;;;;3.35;2.90;;;17.90;29.60;;;;;;5147332;27;47922;-15
2022/01/12 08:06:46;;;;;;;4.07;3.30;;;17.90;29.60;;;;;;5146948;27;47476;-15
2022/01/12 08:09:13;;;;;;;3.40;3.10;;;17.90;29.60;;;;;;5146894;27;46811;-15
2022/01/12 08:11:41;;;;;;;3.47;3.08;;;18.00;29.50;;;;;;5148668;27;47017;-16
2022/01/12 08:14:07;;;;;;;3.08;2.78;;;17.90;29.50;;;;;;5146718;27;46923;-15
2022/01/12 08:16:34;;;;;;;2.90;2.47;;;17.90;29.60;;;;;;5148230;27;46997;-17
2022/01/12 08:19:01;;;;;;;3.40;2.90;;;17.90;29.60;;;;;;5150368;27;46824;-15
2022/01/12 08:21:29;;;;;;;4.43;3.38;;;17.90;29.60;;;;;;5150593;27;47275;-19
2022/01/12 08:23:56;;;;;;;3.13;2.78;;;17.90;29.60;;;;;;5150191;27;48097;-16
2022/01/12 08:26:23;;;;;;;3.30;2.97;;;17.90;29.50;;;;;;5150061;27;46933;-15
2022/01/12 08:28:51;;;;;;;3.80;3.25;;;17.90;29.60;;;;;;5150431;27;46853;-16
2022/01/12 08:31:20;;;;;;;3.63;3.33;;;17.90;29.60;;;;;;5135992;27;47257;-16
2022/01/12 08:33:47;;;;;;;3.63;3.17;;;18.00;29.50;;;;;;5161241;27;47906;-16
2022/01/12 08:36:14;;;;;;;4.50;3.10;;;17.90;29.50;;;;;;5141000;27;47051;-16
2022/01/12 08:38:41;;;;;;;3.20;2.90;;;18.00;29.30;;;;;;5144630;27;46809;-16
2022/01/12 08:41:08;;;;;;;3.50;3.20;;;18.00;29.60;;;;;;5127237;27;47233;-16
2022/01/12 08:43:35;;;;;;;3.05;2.78;;;17.90;29.30;;;;;;5127338;27;48364;-16
2022/01/12 08:46:03;;;;;;;3.42;3.13;;;17.90;29.50;;;;;;5142500;27;47431;-16
2022/01/12 08:48:30;;;;;;;3.53;3.10;;;18.00;29.50;;;;;;5148066;27;46926;-16
2022/01/12 08:50:56;;;;;;;3.65;3.35;;;18.00;29.20;;;;;;5127569;27;47348;-16
2022/01/12 08:53:23;;;;;;;3.83;3.15;;;18.00;30.00;;;;;;5127244;27;48090;-15
2022/01/12 08:55:50;;;;;;;4.28;3.30;;;18.00;29.50;;;;;;5127361;27;46923;-15
2022/01/12 08:58:16;;;;;;;3.40;3.10;;;18.10;29.60;;;;;;5127478;27;47078;-15
2022/01/12 09:00:43;;;;;;;3.55;2.95;;;18.10;29.50;;;;;;5127683;27;47194;-16
2022/01/12 09:03:12;;;;;;;3.50;3.20;;;18.10;29.50;;;;;;5128653;27;48234;-15
2022/01/12 09:05:38;;;;;;;3.72;3.22;;;18.10;29.50;;;;;;5128755;27;46975;-16
2022/01/12 09:08:05;;;;;;;3.40;3.10;;;18.10;29.40;;;;;;5128810;27;46888;-15
2022/01/12 09:10:32;;;;;;;3.20;2.90;;;18.10;29.50;;;;;;5144185;27;47282;-15
2022/01/12 09:12:59;;;;;;;4.40;3.70;;;18.10;29.40;;;;;;5149591;27;47076;-15
2022/01/12 09:15:26;;;;;;;3.33;3.03;;;18.20;29.50;;;;;;5149493;27;47447;-15
2022/01/12 09:17:52;;;;;;;3.75;3.22;;;18.20;29.40;;;;;;5149425;27;46925;-15
2022/01/12 09:20:21;;;;;;;6.95;3.67;;;18.20;29.40;;;;;;5149746;27;46869;-16
2022/01/12 09:22:48;;;;;;;3.50;3.20;;;18.20;29.40;;;;;;5149427;27;48034;-16
2022/01/12 09:25:15;;;;;;;3.63;3.33;;;18.20;29.50;;;;;;5148946;27;46801;-15
2022/01/12 09:27:42;;;;;;;3.67;3.38;;;18.20;29.50;;;;;;5148668;27;46967;-15
2022/01/12 09:30:10;;;;;;;3.53;3.22;;;18.20;29.50;;;;;;5149607;27;47170;-16
2022/01/12 09:32:37;;;;;;;5.00;3.28;;;18.20;29.50;;;;;;5149340;27;46905;-15
2022/01/12 09:35:05;;;;;;;3.42;3.10;;;18.20;29.40;;;;;;5149343;27;46865;-15
2022/01/12 09:37:33;;;;;;;4.75;3.40;;;18.20;29.50;;;;;;5149334;27;46972;-16
2022/01/12 09:39:59;;;;;;;4.80;3.20;;;18.20;29.50;;;;;;5149128;27;47299;-15
2022/01/12 09:42:26;;;;;;;3.30;3.00;;;18.20;29.50;;;;;;5149075;27;47804;-15
2022/01/12 09:44:53;;;;;;;3.75;3.40;;;18.30;29.50;;;;;;5149000;27;46961;-15
2022/01/12 09:47:19;;;;;;;3.47;3.17;;;18.30;29.60;;;;;;5149201;27;46822;-15
2022/01/12 09:49:46;;;;;;;3.33;3.03;;;18.20;29.60;;;;;;5148506;27;46858;-16
2022/01/12 09:52:13;;;;;;;3.80;3.20;;;18.20;29.60;;;;;;5147964;27;49112;-15
2022/01/12 09:54:41;;;;;;;3.55;3.25;;;18.30;29.60;;;;;;5149055;27;46881;-15
2022/01/12 09:57:08;;;;;;;3.67;3.30;;;18.30;29.60;;;;;;5148520;27;46857;-16
2022/01/12 09:59:35;;;;;;;3.08;2.75;;;18.40;29.60;;;;;;5149222;27;46902;-15
2022/01/12 10:02:02;;;;;;;3.60;3.30;;;18.40;29.50;;;;;;5148850;27;47951;-16
2022/01/12 10:04:30;;;;;;;3.42;3.13;;;18.40;29.50;;;;;;5148753;27;47151;-16
2022/01/12 10:06:58;;;;;;;3.78;3.10;;;18.40;29.60;;;;;;5149477;27;46907;-16
2022/01/12 10:09:26;;;;;;;3.80;3.50;;;18.40;29.60;;;;;;5148495;27;47276;-15
2022/01/12 10:11:56;;;;;;;3.40;3.10;;;18.40;29.60;;;;;;5146915;27;48259;-15
2022/01/12 10:14:23;;;;;;;3.38;3.08;;;18.50;29.60;;;;;;5148260;27;47013;-15
2022/01/12 10:16:51;;;;;;;4.28;3.08;;;18.50;29.50;;;;;;5148813;27;46878;-15
2022/01/12 10:19:25;;;;;;;3.80;3.40;;;18.50;29.50;;;;;;5148966;27;47277;-15
2022/01/12 10:21:52;;;;;;;3.40;3.05;;;18.50;29.50;;;;;;5148090;27;46842;-15
2022/01/12 10:24:20;;;;;;;3.17;2.88;;;18.50;29.50;;;;;;5148757;27;47206;-15
2022/01/12 10:26:47;;;;;;;3.50;3.20;;;18.50;29.50;;;;;;5133621;27;47133;-15
2022/01/12 10:29:15;;;;;;;4.28;3.55;;;18.50;29.50;;;;;;5127655;27;46892;-15
2022/01/12 10:31:44;;;;;;;4.47;3.22;;;18.60;29.60;;;;;;5136571;27;47070;-16
2022/01/12 10:34:10;;;;;;;3.50;3.20;;;18.60;29.60;;;;;;5148447;27;47004;-16
2022/01/12 10:36:39;;;;;;;3.92;3.20;;;18.50;29.50;;;;;;5147945;27;46985;-15
2022/01/12 10:39:06;;;;;;;4.47;3.03;;;18.60;29.60;;;;;;5147600;27;46938;-15
2022/01/12 10:41:33;;;;;;;3.55;3.25;;;18.60;29.60;;;;;;5148024;27;49087;-15
2022/01/12 10:44:00;;;;;;;4.03;2.90;;;18.60;29.60;;;;;;5148402;27;46994;-15
2022/01/12 10:46:29;;;;;;;3.45;3.15;;;18.60;29.60;;;;;;5148070;27;46906;-16
2022/01/12 10:48:56;;;;;;;3.10;2.80;;;18.70;29.50;;;;;;5148380;27;47181;-15
2022/01/12 10:51:24;;;;;;;3.20;2.90;;;18.70;29.40;;;;;;5147894;27;46930;-15
2022/01/12 10:53:51;;;;;;;3.25;2.95;;;18.70;29.50;;;;;;5148327;27;46890;-15
2022/01/12 10:56:19;;;;;;;3.17;2.88;;;18.80;29.50;;;;;;5147900;27;46948;-15
2022/01/12 10:58:47;;;;;;;3.92;2.75;;;18.80;29.50;;;;;;5148162;27;47082;-14
2022/01/12 11:01:15;;;;;;;4.05;3.00;;;18.90;29.40;;;;;;5147493;27;48875;-15
2022/01/12 11:03:43;;;;;;;3.22;2.72;;;18.90;29.30;;;;;;5147667;27;46840;-20
2022/01/12 11:06:10;;;;;;;2.95;2.75;;;19.00;29.30;;;;;;5148037;27;47052;-20
2022/01/12 11:08:37;;;;;;;3.30;3.00;;;19.00;29.30;;;;;;5148108;27;46905;-20
2022/01/12 11:11:04;;;;;;;4.00;3.10;;;19.10;29.30;;;;;;5147754;27;47268;-19
2022/01/12 11:13:31;;;;;;;2.70;2.40;;;19.10;29.30;;;;;;5147805;27;46903;-20
2022/01/12 11:15:59;;;;;;;2.88;2.67;;;19.10;29.30;;;;;;5147764;27;46894;-20
2022/01/12 11:18:27;;;;;;;3.25;2.95;;;19.10;29.20;;;;;;5148167;27;46986;-20
2022/01/12 11:20:59;;;;;;;3.00;2.75;;;19.20;29.20;;;;;;5146827;27;48492;-20
2022/01/12 11:23:33;;;;;;;2.92;2.65;;;19.30;29.20;;;;;;5147420;27;46879;-21
2022/01/12 11:26:01;;;;;;;3.20;2.90;;;19.30;29.20;;;;;;5146948;27;46909;-20
2022/01/12 11:28:28;;;;;;;3.03;2.72;;;19.30;29.20;;;;;;5147415;27;46966;-21
2022/01/12 11:31:01;;;;;;;3.30;3.00;;;19.30;29.20;;;;;;5147436;27;49090;-20
2022/01/12 11:33:40;;;;;;;3.13;2.75;;;19.30;29.20;;;;;;5147526;27;46739;-20
2022/01/12 11:36:19;;;;;;;3.10;2.80;;;19.20;29.20;;;;;;5146959;27;46980;-21
2022/01/12 11:38:47;;;;;;;2.92;2.72;;;19.20;29.20;;;;;;5147001;27;47225;-20
2022/01/12 11:41:17;;;;;;;3.10;2.80;;;19.20;29.30;;;;;;5145677;27;47138;-21
2022/01/12 11:43:47;;;;;;;3.08;2.70;;;19.20;29.20;;;;;;5145796;27;47035;-20
2022/01/12 11:46:15;;;;;;;3.20;2.90;;;19.30;29.20;;;;;;5147049;27;47018;-20
2022/01/12 11:48:43;;;;;;;2.83;2.63;;;19.30;29.30;;;;;;5147193;27;47215;-20
2022/01/12 11:51:10;;;;;;;4.43;2.97;;;19.30;29.30;;;;;;5149013;27;49034;-21
2022/01/12 11:53:49;;;;;;;5.05;2.58;;;19.30;29.30;;;;;;5150813;27;46796;-20
2022/01/12 11:56:17;;;;;;;2.90;2.70;;;19.40;29.20;;;;;;5150636;27;46952;-20
2022/01/12 11:58:55;;;;;;;2.72;2.47;;;19.40;29.20;;;;;;5150383;27;46909;-21
2022/01/12 12:01:22;;;;;;;2.70;2.50;;;19.50;29.10;;;;;;5150003;27;48798;-20
2022/01/12 12:04:02;;;;;;;3.30;2.92;;;19.50;29.00;;;;;;5149764;27;46893;-20
2022/01/12 12:06:29;;;;;;;2.83;2.63;;;19.60;28.90;;;;;;5150628;27;48224;-20
2022/01/12 12:08:59;;;;;;;2.85;2.60;;;19.60;28.90;;;;;;5141016;27;47182;-21
2022/01/12 12:11:28;;;;;;;2.78;2.55;;;19.70;29.00;;;;;;5129799;27;48806;-24
2022/01/12 12:13:55;;;;;;;2.63;2.42;;;19.70;28.90;;;;;;5129902;27;47101;-20
2022/01/12 12:16:22;;;;;;;2.33;2.13;;;19.80;28.90;;;;;;5128962;27;46852;-21
2022/01/12 12:18:48;;;;;;;3.45;2.75;;;19.80;28.90;;;;;;5130071;27;46870;-20
2022/01/12 12:21:15;;;;;;;3.35;2.72;;;19.80;28.80;;;;;;5129458;27;48260;-20
2022/01/12 12:23:42;;;;;;;2.60;2.40;;;19.80;28.90;;;;;;5129630;27;46943;-20
2022/01/12 12:26:10;;;;;;;2.85;2.40;;;19.80;28.80;;;;;;5129119;27;46889;-20
2022/01/12 12:28:36;;;;;;;2.60;2.40;;;19.80;28.80;;;;;;5129603;27;46871;-20
2022/01/12 12:31:03;;;;;;;2.72;2.53;;;19.80;28.80;;;;;;5129017;27;46822;-21
2022/01/12 12:33:30;;;;;;;2.38;2.17;;;19.80;28.80;;;;;;5129549;27;47017;-20
2022/01/12 12:35:57;;;;;;;2.60;2.40;;;19.80;28.80;;;;;;5129286;27;46996;-20
2022/01/12 12:38:23;;;;;;;2.50;2.30;;;19.70;28.80;;;;;;5129695;27;46939;-20
2022/01/12 12:40:53;;;;;;;2.75;2.53;;;19.70;28.90;;;;;;5129219;27;49062;-20
2022/01/12 12:43:24;;;;;;;2.58;2.38;;;19.70;28.90;;;;;;5129421;27;46933;-20
2022/01/12 12:45:54;;;;;;;2.80;2.47;;;19.70;28.90;;;;;;5129386;27;47082;-20
2022/01/12 12:48:21;;;;;;;2.70;2.50;;;19.60;28.90;;;;;;5129437;27;46860;-20
2022/01/12 12:50:49;;;;;;;3.50;2.35;;;19.60;29.00;;;;;;5128652;27;47898;-20
2022/01/12 12:53:15;;;;;;;2.83;2.45;;;19.50;29.00;;;;;;5129009;27;46834;-20
2022/01/12 12:55:43;;;;;;;2.80;2.50;;;19.40;29.10;;;;;;5129008;27;46751;-20
2022/01/12 12:58:10;;;;;;;2.28;2.08;;;19.40;29.30;;;;;;5129081;27;46927;-20
2022/01/12 13:00:39;;;;;;;2.45;2.25;;;19.30;29.40;;;;;;5128864;27;48141;-21
2022/01/12 13:03:06;;;;;;;2.72;2.40;;;19.10;29.50;;;;;;5127885;27;46827;-20
2022/01/12 13:05:33;;;;;;;2.58;2.38;;;19.10;29.60;;;;;;5128731;27;46977;-20
2022/01/12 13:08:00;;;;;;;2.40;2.20;;;19.00;29.70;;;;;;5128984;27;46908;-19
2022/01/12 13:10:27;;;;;;;2.42;2.22;;;18.90;29.70;;;;;;5128322;27;46987;-19
2022/01/12 13:12:55;;;;;;;2.33;2.15;;;18.90;29.80;;;;;;5128865;27;47210;-19
2022/01/12 13:15:23;;;;;;;3.17;2.50;;;18.90;29.80;;;;;;5128418;27;46826;-20
2022/01/12 13:17:58;;;;;;;2.33;2.10;;;18.80;29.80;;;;;;5129375;27;46874;-20
2022/01/12 13:23:09;;;;;;;2.33;2.13;;;18.80;29.90;;;;;;5126034;27;46961;-20
2022/01/12 13:25:36;;;;;;;2.40;2.20;;;18.80;29.90;;;;;;5127940;27;46871;-20
2022/01/12 13:28:03;;;;;;;2.60;2.28;;;18.80;30.00;;;;;;5128852;27;47281;-20
2022/01/12 13:30:31;;;;;;;2.65;2.20;;;18.70;30.00;;;;;;5128286;27;48780;-20
2022/01/12 13:33:00;;;;;;;2.72;2.40;;;18.70;30.00;;;;;;5128291;27;47143;-19
2022/01/12 13:35:27;;;;;;;2.45;2.25;;;18.70;30.00;;;;;;5128474;27;46886;-20
2022/01/12 13:37:54;;;;;;;2.47;2.28;;;18.70;30.60;;;;;;5128851;27;46924;-20
2022/01/12 13:40:21;;;;;;;3.67;2.30;;;18.70;30.00;;;;;;5128052;27;49030;-20
2022/01/12 13:42:49;;;;;;;2.15;2.05;;;18.70;30.00;;;;;;5141911;27;46789;-20
2022/01/12 13:45:18;;;;;;;2.45;2.25;;;18.70;30.00;;;;;;5149073;27;46915;-20
2022/01/12 13:47:49;;;;;;;3.38;2.42;;;18.70;30.10;;;;;;5149009;27;46844;-20
2022/01/12 13:50:19;;;;;;;3.67;2.65;;;18.70;30.10;;;;;;5148587;27;46753;-20
2022/01/12 13:52:53;;;;;;;2.80;2.50;;;18.70;30.00;;;;;;5148657;27;46900;-20
2022/01/12 13:55:20;;;;;;;2.65;2.45;;;18.70;30.00;;;;;;5148839;27;47021;-21
2022/01/12 13:57:46;;;;;;;2.60;2.40;;;18.70;30.00;;;;;;5148588;27;46970;-20